sensor_id;sensor_type;location;lat;lon;timestamp;P1;durP1;ratioP1;P2;durP2;ratioP2
17854;SDS011;9053;53.358;6.382;2022-08-04T00:01:06;6.05;;;4.50;;
17854;SDS011;9053;53.358;6.382;2022-08-04T00:03:42;9.75;;;4.43;;
17854;SDS011;9053;53.358;6.382;2022-08-04T00:06:27;8.15;;;4.72;;
17854;SDS011;9053;53.358;6.382;2022-08-04T00:09:05;10.43;;;4.30;;
17854;SDS011;9053;53.358;6.382;2022-08-04T00:11:40;10.55;;;5.13;;
17854;SDS011;9053;53.358;6.382;2022-08-04T00:14:14;5.47;;;4.35;;
17854;SDS011;9053;53.358;6.382;2022-08-04T00:16:45;7.28;;;4.80;;
17854;SDS011;9053;53.358;6.382;2022-08-04T00:19:31;6.88;;;4.68;;
17854;SDS011;9053;53.358;6.382;2022-08-04T00:22:11;7.68;;;4.43;;
17854;SDS011;9053;53.358;6.382;2022-08-04T00:24:42;10.70;;;5.20;;
17854;SDS011;9053;53.358;6.382;2022-08-04T00:27:13;6.05;;;4.38;;
17854;SDS011;9053;53.358;6.382;2022-08-04T00:29:43;6.38;;;4.28;;
17854;SDS011;9053;53.358;6.382;2022-08-04T00:32:18;6.25;;;4.20;;
17854;SDS011;9053;53.358;6.382;2022-08-04T00:35:00;7.07;;;4.22;;
17854;SDS011;9053;53.358;6.382;2022-08-04T00:37:33;6.38;;;4.68;;
17854;SDS011;9053;53.358;6.382;2022-08-04T00:40:08;8.68;;;4.47;;
17854;SDS011;9053;53.358;6.382;2022-08-04T00:42:50;8.43;;;4.40;;
17854;SDS011;9053;53.358;6.382;2022-08-04T00:45:34;7.40;;;5.00;;
17854;SDS011;9053;53.358;6.382;2022-08-04T00:48:54;6.93;;;4.43;;
17854;SDS011;9053;53.358;6.382;2022-08-04T00:51:36;6.70;;;4.70;;
17854;SDS011;9053;53.358;6.382;2022-08-04T00:54:41;5.25;;;4.30;;
17854;SDS011;9053;53.358;6.382;2022-08-04T00:57:29;9.73;;;5.05;;
17854;SDS011;9053;53.358;6.382;2022-08-04T01:00:09;7.20;;;4.68;;
17854;SDS011;9053;53.358;6.382;2022-08-04T01:02:45;8.48;;;4.50;;
17854;SDS011;9053;53.358;6.382;2022-08-04T01:05:32;8.35;;;4.65;;
17854;SDS011;9053;53.358;6.382;2022-08-04T01:08:11;6.97;;;4.40;;
17854;SDS011;9053;53.358;6.382;2022-08-04T01:11:02;6.85;;;4.15;;
17854;SDS011;9053;53.358;6.382;2022-08-04T01:13:42;5.70;;;3.53;;
17854;SDS011;9053;53.358;6.382;2022-08-04T01:16:25;7.88;;;4.00;;
17854;SDS011;9053;53.358;6.382;2022-08-04T01:18:58;4.63;;;3.70;;
17854;SDS011;9053;53.358;6.382;2022-08-04T01:28:00;8.18;;;3.83;;
17854;SDS011;9053;53.358;6.382;2022-08-04T01:30:55;5.22;;;3.45;;
17854;SDS011;9053;53.358;6.382;2022-08-04T01:33:27;7.40;;;4.13;;
17854;SDS011;9053;53.358;6.382;2022-08-04T01:36:18;6.35;;;4.30;;
17854;SDS011;9053;53.358;6.382;2022-08-04T01:38:53;5.85;;;4.07;;
17854;SDS011;9053;53.358;6.382;2022-08-04T01:41:23;5.45;;;4.05;;
17854;SDS011;9053;53.358;6.382;2022-08-04T01:43:58;5.28;;;4.22;;
17854;SDS011;9053;53.358;6.382;2022-08-04T01:46:33;7.30;;;4.45;;
17854;SDS011;9053;53.358;6.382;2022-08-04T01:49:04;7.72;;;4.20;;
17854;SDS011;9053;53.358;6.382;2022-08-04T01:51:36;5.57;;;4.18;;
17854;SDS011;9053;53.358;6.382;2022-08-04T01:54:07;8.77;;;4.93;;
17854;SDS011;9053;53.358;6.382;2022-08-04T01:56:38;6.38;;;4.53;;
17854;SDS011;9053;53.358;6.382;2022-08-04T01:59:10;6.78;;;4.60;;
17854;SDS011;9053;53.358;6.382;2022-08-04T02:01:48;5.47;;;4.68;;
17854;SDS011;9053;53.358;6.382;2022-08-04T02:04:18;7.10;;;4.70;;
17854;SDS011;9053;53.358;6.382;2022-08-04T02:06:51;5.93;;;4.30;;
17854;SDS011;9053;53.358;6.382;2022-08-04T02:09:32;7.00;;;4.50;;
17854;SDS011;9053;53.358;6.382;2022-08-04T02:12:23;6.25;;;4.80;;
17854;SDS011;9053;53.358;6.382;2022-08-04T02:14:56;12.77;;;5.43;;
17854;SDS011;9053;53.358;6.382;2022-08-04T02:17:39;7.40;;;4.90;;
17854;SDS011;9053;53.358;6.382;2022-08-04T02:20:22;7.28;;;4.68;;
17854;SDS011;9053;53.358;6.382;2022-08-04T02:22:56;6.45;;;4.57;;
17854;SDS011;9053;53.358;6.382;2022-08-04T02:25:28;8.90;;;5.20;;
17854;SDS011;9053;53.358;6.382;2022-08-04T02:28:06;7.68;;;5.15;;
17854;SDS011;9053;53.358;6.382;2022-08-04T02:30:51;6.82;;;5.05;;
17854;SDS011;9053;53.358;6.382;2022-08-04T02:33:37;8.30;;;5.70;;
17854;SDS011;9053;53.358;6.382;2022-08-04T02:36:10;8.05;;;5.18;;
17854;SDS011;9053;53.358;6.382;2022-08-04T02:38:49;7.90;;;5.10;;
17854;SDS011;9053;53.358;6.382;2022-08-04T02:41:24;7.63;;;5.05;;
17854;SDS011;9053;53.358;6.382;2022-08-04T02:43:56;6.07;;;5.00;;
17854;SDS011;9053;53.358;6.382;2022-08-04T02:46:28;7.30;;;5.18;;
17854;SDS011;9053;53.358;6.382;2022-08-04T02:49:03;9.77;;;5.53;;
17854;SDS011;9053;53.358;6.382;2022-08-04T02:51:35;8.43;;;5.63;;
17854;SDS011;9053;53.358;6.382;2022-08-04T02:54:06;9.48;;;6.30;;
17854;SDS011;9053;53.358;6.382;2022-08-04T02:56:37;10.10;;;5.93;;
17854;SDS011;9053;53.358;6.382;2022-08-04T02:59:08;7.78;;;5.07;;
17854;SDS011;9053;53.358;6.382;2022-08-04T03:01:40;8.43;;;5.57;;
17854;SDS011;9053;53.358;6.382;2022-08-04T03:04:34;8.48;;;5.47;;
17854;SDS011;9053;53.358;6.382;2022-08-04T03:07:27;9.05;;;5.20;;
17854;SDS011;9053;53.358;6.382;2022-08-04T03:10:17;8.00;;;6.43;;
17854;SDS011;9053;53.358;6.382;2022-08-04T03:16:02;4.97;;;4.55;;
17854;SDS011;9053;53.358;6.382;2022-08-04T03:19:07;7.40;;;5.50;;
17854;SDS011;9053;53.358;6.382;2022-08-04T03:22:26;7.45;;;4.85;;
17854;SDS011;9053;53.358;6.382;2022-08-04T03:32:18;5.93;;;4.65;;
17854;SDS011;9053;53.358;6.382;2022-08-04T03:35:20;6.70;;;4.97;;
17854;SDS011;9053;53.358;6.382;2022-08-04T03:38:12;8.85;;;5.70;;
17854;SDS011;9053;53.358;6.382;2022-08-04T03:47:39;8.15;;;5.25;;
17854;SDS011;9053;53.358;6.382;2022-08-04T03:50:38;7.35;;;5.72;;
17854;SDS011;9053;53.358;6.382;2022-08-04T03:54:11;6.93;;;5.35;;
17854;SDS011;9053;53.358;6.382;2022-08-04T03:57:03;8.55;;;5.57;;
17854;SDS011;9053;53.358;6.382;2022-08-04T04:00:02;8.02;;;4.90;;
17854;SDS011;9053;53.358;6.382;2022-08-04T04:02:44;5.97;;;4.88;;
17854;SDS011;9053;53.358;6.382;2022-08-04T04:05:34;7.45;;;5.20;;
17854;SDS011;9053;53.358;6.382;2022-08-04T04:08:37;7.35;;;5.28;;
17854;SDS011;9053;53.358;6.382;2022-08-04T04:11:29;5.95;;;4.82;;
17854;SDS011;9053;53.358;6.382;2022-08-04T04:23:31;10.07;;;6.45;;
17854;SDS011;9053;53.358;6.382;2022-08-04T04:26:26;8.35;;;5.82;;
17854;SDS011;9053;53.358;6.382;2022-08-04T04:32:21;7.65;;;5.03;;
17854;SDS011;9053;53.358;6.382;2022-08-04T04:35:01;6.60;;;5.40;;
17854;SDS011;9053;53.358;6.382;2022-08-04T04:37:49;7.70;;;5.22;;
17854;SDS011;9053;53.358;6.382;2022-08-04T04:40:48;9.43;;;5.57;;
17854;SDS011;9053;53.358;6.382;2022-08-04T04:46:44;5.55;;;4.38;;
17854;SDS011;9053;53.358;6.382;2022-08-04T04:49:19;6.07;;;4.60;;
17854;SDS011;9053;53.358;6.382;2022-08-04T04:51:59;5.95;;;4.53;;
17854;SDS011;9053;53.358;6.382;2022-08-04T04:54:38;7.70;;;4.45;;
17854;SDS011;9053;53.358;6.382;2022-08-04T04:57:14;6.57;;;4.70;;
17854;SDS011;9053;53.358;6.382;2022-08-04T05:00:08;6.40;;;4.82;;
17854;SDS011;9053;53.358;6.382;2022-08-04T05:02:50;5.97;;;4.55;;
17854;SDS011;9053;53.358;6.382;2022-08-04T05:08:57;6.28;;;4.53;;
17854;SDS011;9053;53.358;6.382;2022-08-04T05:11:52;8.65;;;5.20;;
17854;SDS011;9053;53.358;6.382;2022-08-04T05:15:00;7.97;;;5.05;;
17854;SDS011;9053;53.358;6.382;2022-08-04T05:17:33;6.45;;;4.93;;
17854;SDS011;9053;53.358;6.382;2022-08-04T05:20:05;6.18;;;4.22;;
17854;SDS011;9053;53.358;6.382;2022-08-04T05:22:39;6.38;;;4.20;;
17854;SDS011;9053;53.358;6.382;2022-08-04T05:25:15;5.13;;;4.13;;
17854;SDS011;9053;53.358;6.382;2022-08-04T05:27:54;4.63;;;3.45;;
17854;SDS011;9053;53.358;6.382;2022-08-04T05:30:26;3.75;;;3.35;;
17854;SDS011;9053;53.358;6.382;2022-08-04T05:32:59;4.88;;;3.20;;
17854;SDS011;9053;53.358;6.382;2022-08-04T05:35:33;4.47;;;3.58;;
17854;SDS011;9053;53.358;6.382;2022-08-04T05:38:30;7.32;;;4.82;;
17854;SDS011;9053;53.358;6.382;2022-08-04T05:41:03;6.25;;;4.20;;
17854;SDS011;9053;53.358;6.382;2022-08-04T05:43:37;7.85;;;3.92;;
17854;SDS011;9053;53.358;6.382;2022-08-04T05:46:10;7.13;;;4.05;;
17854;SDS011;9053;53.358;6.382;2022-08-04T05:48:44;4.90;;;4.00;;
17854;SDS011;9053;53.358;6.382;2022-08-04T05:51:13;7.05;;;4.97;;
17854;SDS011;9053;53.358;6.382;2022-08-04T05:53:44;5.38;;;4.72;;
17854;SDS011;9053;53.358;6.382;2022-08-04T05:56:14;7.05;;;5.30;;
17854;SDS011;9053;53.358;6.382;2022-08-04T05:58:48;4.72;;;4.25;;
17854;SDS011;9053;53.358;6.382;2022-08-04T06:01:21;5.50;;;4.53;;
17854;SDS011;9053;53.358;6.382;2022-08-04T06:03:52;6.88;;;5.05;;
17854;SDS011;9053;53.358;6.382;2022-08-04T06:06:24;5.28;;;4.45;;
17854;SDS011;9053;53.358;6.382;2022-08-04T06:08:54;6.70;;;4.53;;
17854;SDS011;9053;53.358;6.382;2022-08-04T06:11:27;5.70;;;4.57;;
17854;SDS011;9053;53.358;6.382;2022-08-04T06:14:20;6.72;;;4.50;;
17854;SDS011;9053;53.358;6.382;2022-08-04T06:16:52;4.97;;;3.95;;
17854;SDS011;9053;53.358;6.382;2022-08-04T06:19:25;6.75;;;5.20;;
17854;SDS011;9053;53.358;6.382;2022-08-04T06:22:16;5.78;;;4.97;;
17854;SDS011;9053;53.358;6.382;2022-08-04T06:24:49;6.68;;;4.80;;
17854;SDS011;9053;53.358;6.382;2022-08-04T06:27:23;6.80;;;5.07;;
17854;SDS011;9053;53.358;6.382;2022-08-04T06:29:56;5.30;;;4.80;;
17854;SDS011;9053;53.358;6.382;2022-08-04T06:32:31;7.40;;;6.18;;
17854;SDS011;9053;53.358;6.382;2022-08-04T06:35:13;6.45;;;5.07;;
17854;SDS011;9053;53.358;6.382;2022-08-04T06:37:45;6.45;;;4.78;;
17854;SDS011;9053;53.358;6.382;2022-08-04T06:40:17;8.95;;;5.72;;
17854;SDS011;9053;53.358;6.382;2022-08-04T06:42:58;6.75;;;5.13;;
17854;SDS011;9053;53.358;6.382;2022-08-04T06:45:32;5.68;;;4.25;;
17854;SDS011;9053;53.358;6.382;2022-08-04T06:48:04;4.88;;;4.25;;
17854;SDS011;9053;53.358;6.382;2022-08-04T06:50:35;7.65;;;5.22;;
17854;SDS011;9053;53.358;6.382;2022-08-04T06:53:26;7.82;;;5.32;;
17854;SDS011;9053;53.358;6.382;2022-08-04T06:55:56;8.80;;;5.85;;
17854;SDS011;9053;53.358;6.382;2022-08-04T06:58:27;7.55;;;5.28;;
17854;SDS011;9053;53.358;6.382;2022-08-04T07:01:02;8.13;;;5.57;;
17854;SDS011;9053;53.358;6.382;2022-08-04T07:03:33;7.50;;;5.18;;
17854;SDS011;9053;53.358;6.382;2022-08-04T07:06:04;7.90;;;5.35;;
17854;SDS011;9053;53.358;6.382;2022-08-04T07:08:40;7.60;;;5.03;;
17854;SDS011;9053;53.358;6.382;2022-08-04T07:11:10;8.13;;;5.78;;
17854;SDS011;9053;53.358;6.382;2022-08-04T07:13:41;7.85;;;5.10;;
17854;SDS011;9053;53.358;6.382;2022-08-04T07:16:14;8.52;;;5.40;;
17854;SDS011;9053;53.358;6.382;2022-08-04T07:18:56;6.60;;;4.60;;
17854;SDS011;9053;53.358;6.382;2022-08-04T07:21:36;4.95;;;4.32;;
17854;SDS011;9053;53.358;6.382;2022-08-04T07:24:30;5.65;;;4.53;;
17854;SDS011;9053;53.358;6.382;2022-08-04T07:27:01;4.80;;;3.88;;
17854;SDS011;9053;53.358;6.382;2022-08-04T07:29:31;5.00;;;4.28;;
17854;SDS011;9053;53.358;6.382;2022-08-04T07:32:04;4.20;;;3.55;;
17854;SDS011;9053;53.358;6.382;2022-08-04T07:34:36;7.22;;;4.15;;
17854;SDS011;9053;53.358;6.382;2022-08-04T07:37:07;5.82;;;4.63;;
17854;SDS011;9053;53.358;6.382;2022-08-04T07:39:38;4.03;;;3.30;;
17854;SDS011;9053;53.358;6.382;2022-08-04T07:42:13;5.95;;;4.35;;
17854;SDS011;9053;53.358;6.382;2022-08-04T07:44:47;5.47;;;3.67;;
17854;SDS011;9053;53.358;6.382;2022-08-04T07:47:20;4.05;;;3.58;;
17854;SDS011;9053;53.358;6.382;2022-08-04T07:49:51;7.03;;;4.63;;
17854;SDS011;9053;53.358;6.382;2022-08-04T07:52:23;4.95;;;3.90;;
17854;SDS011;9053;53.358;6.382;2022-08-04T07:54:54;4.35;;;3.25;;
17854;SDS011;9053;53.358;6.382;2022-08-04T07:57:24;4.40;;;3.88;;
17854;SDS011;9053;53.358;6.382;2022-08-04T08:00:08;4.82;;;3.58;;
17854;SDS011;9053;53.358;6.382;2022-08-04T08:02:43;5.88;;;4.13;;
17854;SDS011;9053;53.358;6.382;2022-08-04T08:05:17;6.85;;;4.20;;
17854;SDS011;9053;53.358;6.382;2022-08-04T08:07:48;4.97;;;3.88;;
17854;SDS011;9053;53.358;6.382;2022-08-04T08:10:20;5.78;;;4.35;;
17854;SDS011;9053;53.358;6.382;2022-08-04T08:12:50;6.57;;;4.63;;
17854;SDS011;9053;53.358;6.382;2022-08-04T08:15:21;8.63;;;4.07;;
17854;SDS011;9053;53.358;6.382;2022-08-04T08:17:53;5.18;;;3.58;;
17854;SDS011;9053;53.358;6.382;2022-08-04T08:20:29;4.32;;;2.95;;
17854;SDS011;9053;53.358;6.382;2022-08-04T08:23:00;6.18;;;3.20;;
17854;SDS011;9053;53.358;6.382;2022-08-04T08:25:31;4.28;;;2.38;;
17854;SDS011;9053;53.358;6.382;2022-08-04T08:28:02;4.72;;;2.92;;
17854;SDS011;9053;53.358;6.382;2022-08-04T08:30:33;5.25;;;3.28;;
17854;SDS011;9053;53.358;6.382;2022-08-04T08:33:10;4.50;;;3.08;;
17854;SDS011;9053;53.358;6.382;2022-08-04T08:35:46;5.13;;;3.38;;
17854;SDS011;9053;53.358;6.382;2022-08-04T08:38:27;5.00;;;3.60;;
17854;SDS011;9053;53.358;6.382;2022-08-04T08:41:12;4.30;;;3.20;;
17854;SDS011;9053;53.358;6.382;2022-08-04T08:47:15;3.00;;;2.20;;
17854;SDS011;9053;53.358;6.382;2022-08-04T08:50:21;6.95;;;3.78;;
17854;SDS011;9053;53.358;6.382;2022-08-04T08:53:12;3.63;;;3.05;;
17854;SDS011;9053;53.358;6.382;2022-08-04T08:55:57;4.85;;;2.72;;
17854;SDS011;9053;53.358;6.382;2022-08-04T08:58:37;5.03;;;2.83;;
17854;SDS011;9053;53.358;6.382;2022-08-04T09:01:21;4.35;;;3.35;;
17854;SDS011;9053;53.358;6.382;2022-08-04T09:07:12;5.35;;;3.47;;
17854;SDS011;9053;53.358;6.382;2022-08-04T09:10:05;5.57;;;2.75;;
17854;SDS011;9053;53.358;6.382;2022-08-04T09:12:44;4.97;;;2.55;;
17854;SDS011;9053;53.358;6.382;2022-08-04T09:15:21;5.57;;;2.80;;
17854;SDS011;9053;53.358;6.382;2022-08-04T09:17:58;4.15;;;2.63;;
17854;SDS011;9053;53.358;6.382;2022-08-04T09:20:35;3.80;;;2.60;;
17854;SDS011;9053;53.358;6.382;2022-08-04T09:23:14;4.13;;;2.20;;
17854;SDS011;9053;53.358;6.382;2022-08-04T09:25:50;5.07;;;3.03;;
17854;SDS011;9053;53.358;6.382;2022-08-04T09:28:25;5.25;;;2.80;;
17854;SDS011;9053;53.358;6.382;2022-08-04T09:31:18;5.25;;;2.75;;
17854;SDS011;9053;53.358;6.382;2022-08-04T09:33:54;5.05;;;3.00;;
17854;SDS011;9053;53.358;6.382;2022-08-04T09:36:34;5.80;;;2.40;;
17854;SDS011;9053;53.358;6.382;2022-08-04T09:39:13;3.00;;;2.17;;
17854;SDS011;9053;53.358;6.382;2022-08-04T09:41:58;4.45;;;2.05;;
17854;SDS011;9053;53.358;6.382;2022-08-04T09:44:38;4.18;;;1.65;;
17854;SDS011;9053;53.358;6.382;2022-08-04T09:47:25;3.72;;;1.88;;
17854;SDS011;9053;53.358;6.382;2022-08-04T09:50:12;5.43;;;1.98;;
17854;SDS011;9053;53.358;6.382;2022-08-04T09:53:02;4.75;;;1.60;;
17854;SDS011;9053;53.358;6.382;2022-08-04T09:55:49;3.13;;;2.00;;
17854;SDS011;9053;53.358;6.382;2022-08-04T09:58:37;5.07;;;2.30;;
17854;SDS011;9053;53.358;6.382;2022-08-04T10:01:15;3.72;;;1.77;;
17854;SDS011;9053;53.358;6.382;2022-08-04T10:03:49;5.70;;;2.00;;
17854;SDS011;9053;53.358;6.382;2022-08-04T10:06:38;2.67;;;1.75;;
17854;SDS011;9053;53.358;6.382;2022-08-04T10:09:20;4.15;;;1.50;;
17854;SDS011;9053;53.358;6.382;2022-08-04T10:12:07;3.00;;;1.75;;
17854;SDS011;9053;53.358;6.382;2022-08-04T10:14:51;1.30;;;1.20;;
17854;SDS011;9053;53.358;6.382;2022-08-04T10:17:30;4.28;;;1.70;;
17854;SDS011;9053;53.358;6.382;2022-08-04T10:20:19;3.05;;;1.40;;
17854;SDS011;9053;53.358;6.382;2022-08-04T10:23:14;1.55;;;1.30;;
17854;SDS011;9053;53.358;6.382;2022-08-04T10:26:27;1.90;;;1.40;;
17854;SDS011;9053;53.358;6.382;2022-08-04T10:29:08;2.25;;;1.20;;
17854;SDS011;9053;53.358;6.382;2022-08-04T10:31:43;1.35;;;1.25;;
17854;SDS011;9053;53.358;6.382;2022-08-04T10:34:18;2.35;;;1.10;;
17854;SDS011;9053;53.358;6.382;2022-08-04T10:36:52;1.13;;;1.02;;
17854;SDS011;9053;53.358;6.382;2022-08-04T10:39:41;1.00;;;0.80;;
17854;SDS011;9053;53.358;6.382;2022-08-04T10:42:34;1.40;;;1.08;;
17854;SDS011;9053;53.358;6.382;2022-08-04T10:45:13;1.70;;;1.10;;
17854;SDS011;9053;53.358;6.382;2022-08-04T10:47:50;1.92;;;1.25;;
17854;SDS011;9053;53.358;6.382;2022-08-04T10:50:36;2.60;;;1.02;;
17854;SDS011;9053;53.358;6.382;2022-08-04T10:53:11;2.42;;;1.40;;
17854;SDS011;9053;53.358;6.382;2022-08-04T10:55:47;2.00;;;1.27;;
17854;SDS011;9053;53.358;6.382;2022-08-04T10:58:35;3.40;;;1.40;;
17854;SDS011;9053;53.358;6.382;2022-08-04T11:01:17;2.13;;;1.35;;
17854;SDS011;9053;53.358;6.382;2022-08-04T11:04:14;1.77;;;1.00;;
17854;SDS011;9053;53.358;6.382;2022-08-04T11:06:59;2.15;;;1.33;;
17854;SDS011;9053;53.358;6.382;2022-08-04T11:09:30;1.70;;;1.00;;
17854;SDS011;9053;53.358;6.382;2022-08-04T11:12:02;1.92;;;1.30;;
17854;SDS011;9053;53.358;6.382;2022-08-04T11:14:40;4.03;;;1.45;;
17854;SDS011;9053;53.358;6.382;2022-08-04T11:17:18;3.28;;;1.90;;
17854;SDS011;9053;53.358;6.382;2022-08-04T11:19:52;3.15;;;1.80;;
17854;SDS011;9053;53.358;6.382;2022-08-04T11:22:49;2.92;;;1.48;;
17854;SDS011;9053;53.358;6.382;2022-08-04T11:25:27;4.10;;;2.00;;
17854;SDS011;9053;53.358;6.382;2022-08-04T11:28:03;2.28;;;1.30;;
17854;SDS011;9053;53.358;6.382;2022-08-04T11:30:40;4.00;;;1.83;;
17854;SDS011;9053;53.358;6.382;2022-08-04T11:33:20;2.35;;;1.73;;
17854;SDS011;9053;53.358;6.382;2022-08-04T11:36:01;2.92;;;1.73;;
17854;SDS011;9053;53.358;6.382;2022-08-04T11:38:37;2.85;;;1.55;;
17854;SDS011;9053;53.358;6.382;2022-08-04T11:41:18;3.30;;;1.60;;
17854;SDS011;9053;53.358;6.382;2022-08-04T11:43:52;2.38;;;1.40;;
17854;SDS011;9053;53.358;6.382;2022-08-04T11:46:38;3.70;;;1.55;;
17854;SDS011;9053;53.358;6.382;2022-08-04T11:49:13;3.00;;;1.15;;
17854;SDS011;9053;53.358;6.382;2022-08-04T11:51:50;2.17;;;1.40;;
17854;SDS011;9053;53.358;6.382;2022-08-04T11:54:24;2.53;;;1.33;;
17854;SDS011;9053;53.358;6.382;2022-08-04T11:56:54;2.60;;;1.30;;
17854;SDS011;9053;53.358;6.382;2022-08-04T11:59:24;3.20;;;1.55;;
17854;SDS011;9053;53.358;6.382;2022-08-04T12:02:03;2.45;;;1.13;;
17854;SDS011;9053;53.358;6.382;2022-08-04T12:04:54;2.22;;;1.40;;
17854;SDS011;9053;53.358;6.382;2022-08-04T12:07:30;2.42;;;1.40;;
17854;SDS011;9053;53.358;6.382;2022-08-04T12:10:13;1.95;;;1.40;;
17854;SDS011;9053;53.358;6.382;2022-08-04T12:13:09;2.13;;;1.30;;
17854;SDS011;9053;53.358;6.382;2022-08-04T12:15:52;2.38;;;1.23;;
17854;SDS011;9053;53.358;6.382;2022-08-04T12:18:44;3.50;;;1.50;;
17854;SDS011;9053;53.358;6.382;2022-08-04T12:21:24;3.15;;;1.48;;
17854;SDS011;9053;53.358;6.382;2022-08-04T12:24:01;3.22;;;1.73;;
17854;SDS011;9053;53.358;6.382;2022-08-04T12:26:36;4.22;;;1.83;;
17854;SDS011;9053;53.358;6.382;2022-08-04T12:29:10;4.53;;;1.85;;
17854;SDS011;9053;53.358;6.382;2022-08-04T12:31:45;5.30;;;2.17;;
17854;SDS011;9053;53.358;6.382;2022-08-04T12:34:22;4.78;;;1.75;;
17854;SDS011;9053;53.358;6.382;2022-08-04T12:37:00;5.13;;;2.05;;
17854;SDS011;9053;53.358;6.382;2022-08-04T12:39:33;3.72;;;1.90;;
17854;SDS011;9053;53.358;6.382;2022-08-04T12:42:27;3.63;;;1.95;;
17854;SDS011;9053;53.358;6.382;2022-08-04T12:45:02;4.07;;;2.05;;
17854;SDS011;9053;53.358;6.382;2022-08-04T12:47:36;4.28;;;1.85;;
17854;SDS011;9053;53.358;6.382;2022-08-04T12:50:08;3.95;;;2.08;;
17854;SDS011;9053;53.358;6.382;2022-08-04T12:52:46;5.60;;;2.22;;
17854;SDS011;9053;53.358;6.382;2022-08-04T12:55:28;6.75;;;3.10;;
17854;SDS011;9053;53.358;6.382;2022-08-04T12:58:01;6.90;;;2.92;;
17854;SDS011;9053;53.358;6.382;2022-08-04T13:00:33;5.65;;;2.33;;
17854;SDS011;9053;53.358;6.382;2022-08-04T13:03:08;6.35;;;2.50;;
17854;SDS011;9053;53.358;6.382;2022-08-04T13:05:39;6.43;;;2.42;;
17854;SDS011;9053;53.358;6.382;2022-08-04T13:08:13;5.45;;;2.40;;
17854;SDS011;9053;53.358;6.382;2022-08-04T13:10:48;6.88;;;2.85;;
17854;SDS011;9053;53.358;6.382;2022-08-04T13:13:23;5.65;;;2.38;;
17854;SDS011;9053;53.358;6.382;2022-08-04T13:15:55;5.13;;;2.42;;
17854;SDS011;9053;53.358;6.382;2022-08-04T13:18:27;3.13;;;1.90;;
17854;SDS011;9053;53.358;6.382;2022-08-04T13:21:08;7.80;;;2.55;;
17854;SDS011;9053;53.358;6.382;2022-08-04T13:23:49;8.25;;;2.92;;
17854;SDS011;9053;53.358;6.382;2022-08-04T13:26:47;6.93;;;3.50;;
17854;SDS011;9053;53.358;6.382;2022-08-04T13:29:22;7.40;;;3.28;;
17854;SDS011;9053;53.358;6.382;2022-08-04T13:32:16;9.35;;;3.78;;
17854;SDS011;9053;53.358;6.382;2022-08-04T13:34:53;9.13;;;3.83;;
17854;SDS011;9053;53.358;6.382;2022-08-04T13:37:25;9.35;;;4.00;;
17854;SDS011;9053;53.358;6.382;2022-08-04T13:40:04;8.57;;;3.63;;
17854;SDS011;9053;53.358;6.382;2022-08-04T13:42:37;7.32;;;3.83;;
17854;SDS011;9053;53.358;6.382;2022-08-04T13:45:08;7.05;;;3.75;;
17854;SDS011;9053;53.358;6.382;2022-08-04T13:47:39;7.65;;;3.80;;
17854;SDS011;9053;53.358;6.382;2022-08-04T13:50:13;8.68;;;4.60;;
17854;SDS011;9053;53.358;6.382;2022-08-04T13:52:46;5.50;;;4.20;;
17854;SDS011;9053;53.358;6.382;2022-08-04T13:55:25;7.70;;;5.18;;
17854;SDS011;9053;53.358;6.382;2022-08-04T13:57:58;6.10;;;4.20;;
17854;SDS011;9053;53.358;6.382;2022-08-04T14:00:40;3.55;;;2.92;;
17854;SDS011;9053;53.358;6.382;2022-08-04T14:03:13;6.65;;;3.15;;
17854;SDS011;9053;53.358;6.382;2022-08-04T14:08:53;4.18;;;2.70;;
17854;SDS011;9053;53.358;6.382;2022-08-04T14:11:32;5.05;;;3.20;;
17854;SDS011;9053;53.358;6.382;2022-08-04T14:14:24;7.38;;;3.45;;
17854;SDS011;9053;53.358;6.382;2022-08-04T14:16:56;6.35;;;3.10;;
17854;SDS011;9053;53.358;6.382;2022-08-04T14:19:28;4.10;;;3.25;;
17854;SDS011;9053;53.358;6.382;2022-08-04T14:22:33;4.03;;;3.58;;
17854;SDS011;9053;53.358;6.382;2022-08-04T14:25:05;5.38;;;3.38;;
17854;SDS011;9053;53.358;6.382;2022-08-04T14:27:47;4.72;;;2.60;;
17854;SDS011;9053;53.358;6.382;2022-08-04T14:30:24;3.15;;;2.42;;
17854;SDS011;9053;53.358;6.382;2022-08-04T14:32:57;2.95;;;2.30;;
17854;SDS011;9053;53.358;6.382;2022-08-04T14:35:55;3.13;;;2.10;;
17854;SDS011;9053;53.358;6.382;2022-08-04T14:38:40;3.70;;;2.75;;
17854;SDS011;9053;53.358;6.382;2022-08-04T14:41:27;2.50;;;2.30;;
17854;SDS011;9053;53.358;6.382;2022-08-04T14:44:01;3.75;;;2.25;;
17854;SDS011;9053;53.358;6.382;2022-08-04T14:46:33;2.85;;;2.20;;
17854;SDS011;9053;53.358;6.382;2022-08-04T14:49:18;3.92;;;2.53;;
17854;SDS011;9053;53.358;6.382;2022-08-04T14:51:51;2.40;;;2.20;;
17854;SDS011;9053;53.358;6.382;2022-08-04T14:54:26;2.30;;;2.10;;
17854;SDS011;9053;53.358;6.382;2022-08-04T14:56:59;1.85;;;1.73;;
17854;SDS011;9053;53.358;6.382;2022-08-04T14:59:41;1.88;;;1.65;;
17854;SDS011;9053;53.358;6.382;2022-08-04T15:02:28;2.58;;;1.60;;
17854;SDS011;9053;53.358;6.382;2022-08-04T15:05:00;1.73;;;1.50;;
17854;SDS011;9053;53.358;6.382;2022-08-04T15:07:51;2.40;;;1.70;;
17854;SDS011;9053;53.358;6.382;2022-08-04T15:10:21;3.47;;;1.60;;
17854;SDS011;9053;53.358;6.382;2022-08-04T15:12:51;1.98;;;1.40;;
17854;SDS011;9053;53.358;6.382;2022-08-04T15:15:24;2.83;;;1.70;;
17854;SDS011;9053;53.358;6.382;2022-08-04T15:18:03;1.65;;;1.20;;
17854;SDS011;9053;53.358;6.382;2022-08-04T15:20:35;1.95;;;1.48;;
17854;SDS011;9053;53.358;6.382;2022-08-04T15:23:07;2.97;;;1.70;;
17854;SDS011;9053;53.358;6.382;2022-08-04T15:25:37;3.08;;;1.60;;
17854;SDS011;9053;53.358;6.382;2022-08-04T15:28:17;3.03;;;1.60;;
17854;SDS011;9053;53.358;6.382;2022-08-04T15:30:53;3.10;;;1.45;;
17854;SDS011;9053;53.358;6.382;2022-08-04T15:33:24;2.60;;;1.63;;
17854;SDS011;9053;53.358;6.382;2022-08-04T15:36:08;3.65;;;1.30;;
17854;SDS011;9053;53.358;6.382;2022-08-04T15:38:43;2.58;;;1.40;;
17854;SDS011;9053;53.358;6.382;2022-08-04T15:41:31;3.60;;;1.50;;
17854;SDS011;9053;53.358;6.382;2022-08-04T15:44:25;1.60;;;1.40;;
17854;SDS011;9053;53.358;6.382;2022-08-04T15:47:17;4.32;;;1.50;;
17854;SDS011;9053;53.358;6.382;2022-08-04T15:50:00;3.42;;;1.60;;
17854;SDS011;9053;53.358;6.382;2022-08-04T15:55:39;3.83;;;1.63;;
17854;SDS011;9053;53.358;6.382;2022-08-04T15:58:13;3.00;;;1.50;;
17854;SDS011;9053;53.358;6.382;2022-08-04T16:03:48;5.03;;;1.60;;
17854;SDS011;9053;53.358;6.382;2022-08-04T16:09:32;3.38;;;1.20;;
17854;SDS011;9053;53.358;6.382;2022-08-04T16:12:24;2.42;;;1.35;;
17854;SDS011;9053;53.358;6.382;2022-08-04T16:15:38;3.58;;;1.50;;
17854;SDS011;9053;53.358;6.382;2022-08-04T16:18:10;3.85;;;1.52;;
17854;SDS011;9053;53.358;6.382;2022-08-04T16:20:58;2.42;;;1.45;;
17854;SDS011;9053;53.358;6.382;2022-08-04T16:26:43;3.40;;;1.60;;
17854;SDS011;9053;53.358;6.382;2022-08-04T16:29:29;3.03;;;1.70;;
17854;SDS011;9053;53.358;6.382;2022-08-04T16:35:05;2.55;;;1.60;;
17854;SDS011;9053;53.358;6.382;2022-08-04T16:37:51;3.00;;;1.60;;
17854;SDS011;9053;53.358;6.382;2022-08-04T16:40:29;4.60;;;1.60;;
17854;SDS011;9053;53.358;6.382;2022-08-04T16:43:05;3.17;;;1.80;;
17854;SDS011;9053;53.358;6.382;2022-08-04T16:45:46;3.50;;;1.90;;
17854;SDS011;9053;53.358;6.382;2022-08-04T16:48:20;4.28;;;1.83;;
17854;SDS011;9053;53.358;6.382;2022-08-04T16:50:53;4.68;;;1.98;;
17854;SDS011;9053;53.358;6.382;2022-08-04T16:53:35;4.03;;;1.90;;
17854;SDS011;9053;53.358;6.382;2022-08-04T16:56:27;2.85;;;1.98;;
17854;SDS011;9053;53.358;6.382;2022-08-04T16:59:06;3.17;;;1.70;;
17854;SDS011;9053;53.358;6.382;2022-08-04T17:01:37;4.15;;;2.35;;
17854;SDS011;9053;53.358;6.382;2022-08-04T17:04:14;5.65;;;2.35;;
17854;SDS011;9053;53.358;6.382;2022-08-04T17:06:44;2.53;;;1.85;;
17854;SDS011;9053;53.358;6.382;2022-08-04T17:09:17;5.47;;;2.40;;
17854;SDS011;9053;53.358;6.382;2022-08-04T17:11:54;4.20;;;2.55;;
17854;SDS011;9053;53.358;6.382;2022-08-04T17:14:28;6.95;;;2.70;;
17854;SDS011;9053;53.358;6.382;2022-08-04T17:17:00;5.75;;;3.00;;
17854;SDS011;9053;53.358;6.382;2022-08-04T17:19:34;3.45;;;2.40;;
17854;SDS011;9053;53.358;6.382;2022-08-04T17:22:04;4.55;;;3.08;;